D/T METAR WX W/DIR W/SPE G/SPE TEMP DEWP
23/05/19 13:50 EGUB 231250Z 22006KT CAVOK 21/07 Q1015 BLU NOSIG SW (220°) 6.9mph 21°C 7°C
23/05/19 12:50 EGUB 231150Z 19007KT CAVOK 20/07 Q1016 BLU NOSIG S (190°) 8.1mph 20°C 7°C
23/05/19 11:50 EGUB 231050Z 26005KT CAVOK 20/08 Q1016 BLU NOSIG W (260°) 5.8mph 20°C 8°C
23/05/19 10:50 EGUB 230950Z 22006KT CAVOK 19/07 Q1016 BLU NOSIG SW (220°) 6.9mph 19°C 7°C
23/05/19 09:50 EGUB 230850Z 21005KT CAVOK 16/08 Q1017 BLU NOSIG SSW (210°) 5.8mph 16°C 8°C
23/05/19 08:50 EGUB 230750Z 21002KT CAVOK 14/08 Q1017 BLU NOSIG SSW (210°) 2.3mph 14°C 8°C
23/05/19 07:50 EGUB 230650Z 19004KT CAVOK 12/08 Q1017 BLU NOSIG S (190°) 4.6mph 12°C 8°C
23/05/19 06:50 EGUB 230550Z 19004KT CAVOK 09/07 Q1017 BLU NOSIG S (190°) 4.6mph 9°C 7°C
23/05/19 05:50 EGUB 230450Z AUTO 17001KT 9999 // SCT050/// 06/05 Q1017 S (170°) 1.2mph 6°C 5°C
23/05/19 04:50 EGUB 230350Z AUTO 18001KT 9999 // FEW200/// 06/04 Q1017 S (180°) 1.2mph 6°C 4°C
23/05/19 03:50 EGUB 230250Z AUTO 16003KT 9999 // SCT200/// 06/04 Q1017 SSE (160°) 3.5mph 6°C 4°C
23/05/19 02:50 EGUB 230150Z AUTO 15004KT 9999 // NCD 06/04 Q1017 SSE (150°) 4.6mph 6°C 4°C
23/05/19 01:50 EGUB 230050Z AUTO 18001KT 9999 // NCD 08/05 Q1018 S (180°) 1.2mph 8°C 5°C
23/05/19 00:50 EGUB 222350Z AUTO 16004KT 9999 // NCD 09/05 Q1018 SSE (160°) 4.6mph 9°C 5°C
22/05/19 23:50 EGUB 222250Z AUTO 17003KT 9999 // NCD 10/05 Q1018 S (170°) 3.5mph 10°C 5°C
22/05/19 22:50 EGUB 222150Z AUTO 17006KT 9999 // FEW150/// 11/05 Q1018 S (170°) 6.9mph 11°C 5°C
22/05/19 21:50 EGUB 222050Z AUTO 16006KT 9999 // SCT050/// 12/06 Q1018 SSE (160°) 6.9mph 12°C 6°C
22/05/19 20:50 EGUB 221950Z 19005KT CAVOK 14/06 Q1018 BLU NOSIG S (190°) 5.8mph 14°C 6°C
22/05/19 19:50 EGUB 221850Z 24005KT CAVOK 18/07 Q1017 BLU WSW (240°) 5.8mph 18°C 7°C
22/05/19 18:50 EGUB 221750Z 25007KT CAVOK 20/06 Q1018 BLU NOSIG WSW (250°) 8.1mph 20°C 6°C
22/05/19 17:50 EGUB 221650Z 23008KT CAVOK 20/06 Q1018 BLU NOSIG SW (230°) 9.2mph 20°C 6°C
22/05/19 16:50 EGUB 221550Z 20008KT CAVOK 19/06 Q1018 BLU NOSIG SSW (200°) 9.2mph 19°C 6°C
22/05/19 15:50 EGUB 221450Z 22010KT CAVOK 21/06 Q1018 BLU NOSIG SW (220°) 11.5mph 21°C 6°C
22/05/19 14:50 EGUB 221350Z 23008KT CAVOK 20/05 Q1019 BLU NOSIG SW (230°) 9.2mph 20°C 5°C
22/05/19 13:50 EGUB 221250Z 25005KT CAVOK 20/06 Q1019 BLU NOSIG WSW (250°) 5.8mph 20°C 6°C
22/05/19 12:50 EGUB 221150Z 23006KT CAVOK 18/06 Q1020 BLU NOSIG SW (230°) 6.9mph 18°C 6°C
22/05/19 11:50 EGUB 221050Z 20007KT CAVOK 17/04 Q1020 BLU NOSIG SSW (200°) 8.1mph 17°C 4°C
22/05/19 10:50 EGUB 220950Z 16004KT 9999 FEW042 BKN250 17/06 Q1020 BLU NOSIG SSE (160°) 4.6mph 17°C 6°C
22/05/19 09:50 EGUB 220850Z AUTO 21002KT 9999 // FEW160/// 15/06 Q1020 SSW (210°) 2.3mph 15°C 6°C
22/05/19 08:50 EGUB 220750Z AUTO 13001KT 9999 // FEW150/// 14/06 Q1020 SE (130°) 1.2mph 14°C 6°C
22/05/19 07:50 EGUB 220650Z 22001KT CAVOK 11/06 Q1020 BLU NOSIG SW (220°) 1.2mph 11°C 6°C
22/05/19 06:50 EGUB 220550Z 09001KT CAVOK 09/07 Q1020 BLU NOSIG E (90°) 1.2mph 9°C 7°C
22/05/19 05:50 EGUB 220450Z AUTO 17001KT 9999 // FEW060/// 05/03 Q1020 S (170°) 1.2mph 5°C 3°C
22/05/19 04:50 EGUB 220350Z AUTO 00000KT 9999 // BKN170/// 06/03 Q1020 N (0°) 6°C 3°C
22/05/19 03:50 EGUB 220250Z AUTO 35003KT 9999 // FEW060/// BKN190/// 07/05 Q1020 N (350°) 3.5mph 7°C 5°C
22/05/19 02:50 EGUB 220150Z AUTO 01002KT 9999 // SCT060/// BKN180/// 08/06 Q1020 N (10°) 2.3mph 8°C 6°C
22/05/19 01:50 EGUB 220050Z AUTO 07002KT 9999 // OVC050/// 09/07 Q1020 ENE (70°) 2.3mph 9°C 7°C
22/05/19 00:50 EGUB 212350Z AUTO 00000KT 9999 // BKN060/// 08/06 Q1020 N (0°) 8°C 6°C
21/05/19 23:50 EGUB 212250Z 00000KT CAVOK 09/06 Q1020 BLU NOSIG N (0°) 9°C 6°C
21/05/19 22:50 EGUB 212150Z 01002KT CAVOK 10/06 Q1020 BLU NOSIG N (10°) 2.3mph 10°C 6°C
21/05/19 21:50 EGUB 212050Z 08004KT CAVOK 09/06 Q1019 BLU NOSIG E (80°) 4.6mph 9°C 6°C
21/05/19 20:50 EGUB 211950Z 01002KT CAVOK 14/07 Q1019 BLU NOSIG N (10°) 2.3mph 14°C 7°C
21/05/19 19:50 EGUB 211850Z 34004KT CAVOK 17/06 Q1019 BLU NOSIG NNW (340°) 4.6mph 17°C 6°C
21/05/19 18:50 EGUB 211750Z 29007KT CAVOK 19/05 Q1019 BLU NOSIG WNW (290°) 8.1mph 19°C 5°C
21/05/19 17:50 EGUB 211650Z 34007KT CAVOK 19/07 Q1018 BLU NOSIG NNW (340°) 8.1mph 19°C 7°C
21/05/19 16:50 EGUB 211550Z 33007KT CAVOK 19/05 Q1019 BLU NOSIG NNW (330°) 8.1mph 19°C 5°C
21/05/19 15:50 EGUB 211450Z 31007KT CAVOK 19/06 Q1018 BLU NOSIG NW (310°) 8.1mph 19°C 6°C
21/05/19 14:50 EGUB 211350Z 31008KT CAVOK 19/07 Q1018 BLU NOSIG NW (310°) 9.2mph 19°C 7°C